Silva, Missouri
Current Conditions -  °F | °C
As of 2:35 PM on Tuesday 21 Oct 2014 (Local Time) from KFAM Reporting Station
Clear Clear  
Wind Chill: 70°   Ceiling: Unl
Heat Index: 70°   Visibility: 10mi
Dew Point: 46°   Wind: 5mph
Humidity: 43%   Direction: 320°NW
Pressure: 30.11"   Gusts: NA
Location:  37.18°N, 90.46°W
Report Text: KFAM 211935Z AUTO 32004KT 10SM CLR 21/08 A3011 RMK AO1
Loading
Personal Weather Stations






























Interactive Weather Map New forecast layout! Learn more

10-Day Weather Forecast

Advertisements
Track Severe Weather on mobile